Time;durP1;ratioP1;P1;durP2;ratioP2;P2;SDS_P1;SDS_P2;PMS_P1;PMS_P2;Temp;Humidity;BMP_temperature;BMP_pressure;BME280_temperature;BME280_humidity;BME280_pressure;Samples;Min_cycle;Max_cycle;Signal;HPM_P1;HPM_P2
2021/01/31 00:01:37;;;;;;;;;;;;;;;2.99;91.20;97981.09;1716530;82;21212;-71
2021/01/31 00:04:04;;;;;;;6.93;3.60;;;;;;;2.98;91.05;97988.41;1724486;82;20535;-80
2021/01/31 00:06:33;;;;;;;6.75;3.35;;;;;;;2.97;90.81;97989.47;1714280;83;21711;-83
2021/01/31 00:09:01;;;;;;;6.12;3.20;;;;;;;2.98;90.78;97993.81;1717306;83;21141;-77
2021/01/31 00:11:28;;;;;;;6.80;2.93;;;;;;;2.96;90.64;97989.73;1693903;83;21418;-72
2021/01/31 00:13:57;;;;;;;6.58;2.95;;;;;;;2.94;90.43;97983.74;1699061;84;21717;-76
2021/01/31 00:16:24;;;;;;;6.33;3.08;;;;;;;2.93;90.42;97983.48;1693510;83;21121;-75
2021/01/31 00:18:52;;;;;;;6.83;3.05;;;;;;;2.92;90.36;97989.41;1671163;84;21210;-82
2021/01/31 00:21:21;;;;;;;7.15;2.70;;;;;;;2.91;90.42;97983.72;1722735;82;21195;-81
2021/01/31 00:23:49;;;;;;;6.33;3.05;;;;;;;2.90;90.50;97982.63;1711403;83;21625;-74
2021/01/31 00:26:18;;;;;;;7.10;3.17;;;;;;;2.90;90.58;97992.09;1690598;82;21158;-81
2021/01/31 00:28:47;;;;;;;9.10;3.17;;;;;;;2.88;90.70;97988.30;1703816;83;21156;-84
2021/01/31 00:31:14;;;;;;;8.18;3.20;;;;;;;2.88;90.42;97985.60;1706278;82;21174;-82
2021/01/31 00:33:42;;;;;;;8.88;3.75;;;;;;;2.86;90.35;97986.36;1703757;83;21204;-83
2021/01/31 00:36:10;;;;;;;6.37;2.95;;;;;;;2.85;90.31;97982.58;1706344;82;21290;-83
2021/01/31 00:38:38;;;;;;;6.92;3.00;;;;;;;2.82;90.25;97978.50;1703084;83;21184;-86
2021/01/31 00:41:07;;;;;;;6.17;2.87;;;;;;;2.80;90.34;97974.42;1699019;84;21137;-85
2021/01/31 00:43:35;;;;;;;7.12;3.00;;;;;;;2.78;90.36;97973.34;1699697;84;21208;-79
2021/01/31 00:46:03;;;;;;;7.83;3.12;;;;;;;2.76;90.43;97970.05;1696114;84;21192;-86
2021/01/31 00:48:36;;;;;;;5.37;2.83;;;;;;;2.76;90.50;97971.96;1700717;84;21579;-91
2021/01/31 00:51:05;;;;;;;7.47;3.47;;;;;;;2.76;90.61;97971.41;1702542;83;21128;-86
2021/01/31 00:53:33;;;;;;;6.08;3.52;;;;;;;2.74;90.72;97966.80;1698851;83;21682;-80
2021/01/31 00:56:03;;;;;;;7.12;2.87;;;;;;;2.74;90.76;97960.57;1704264;83;21295;-81
2021/01/31 00:58:32;;;;;;;7.57;3.17;;;;;;;2.73;90.76;97967.88;1692072;83;21187;-82
2021/01/31 01:01:00;;;;;;;8.00;2.87;;;;;;;2.71;90.71;97968.64;1716619;82;21144;-86
2021/01/31 01:03:29;;;;;;;5.97;2.85;;;;;;;2.70;90.73;97969.73;1726724;82;21492;-84
2021/01/31 01:06:01;;;;;;;7.50;2.97;;;;;;;2.70;90.78;97967.03;1702925;84;21146;-84
2021/01/31 01:08:29;;;;;;;6.95;2.92;;;;;;;2.71;90.76;97963.80;1708829;83;21199;-86
2021/01/31 01:10:57;;;;;;;5.92;2.67;;;;;;;2.70;90.74;97956.23;1708901;83;21152;-84
2021/01/31 01:13:25;;;;;;;6.40;2.65;;;;;;;2.69;90.62;97953.77;1699849;84;21159;-76
2021/01/31 01:15:53;;;;;;;5.37;2.42;;;;;;;2.68;90.59;97952.97;1711121;82;21212;-84
2021/01/31 01:18:21;;;;;;;6.10;2.65;;;;;;;2.66;90.51;97945.64;1705921;83;21156;-74
2021/01/31 01:20:49;;;;;;;5.03;2.63;;;;;;;2.65;90.36;97933.75;1724939;82;21706;-75
2021/01/31 01:23:17;;;;;;;5.30;2.42;;;;;;;2.64;90.23;97948.31;1673147;84;21207;-85
2021/01/31 01:25:46;;;;;;;;;;;;;;;2.63;90.20;97944.81;1728825;83;21135;-74
2021/01/31 01:28:14;;;;;;;6.77;3.80;;;;;;;2.62;90.25;97943.17;1708069;82;20514;-81
2021/01/31 01:30:42;;;;;;;;;;;;;;;2.59;90.34;97936.92;1715426;82;21305;-81
2021/01/31 01:33:09;;;;;;;9.80;5.78;;;;;;;2.56;90.43;97935.55;1725509;82;20227;-82
2021/01/31 01:35:37;;;;;;;10.32;6.25;;;;;;;2.55;90.53;97936.61;1695521;82;21158;-80
2021/01/31 01:38:05;;;;;;;11.60;7.75;;;;;;;2.53;90.54;97929.30;1722918;82;21546;-81
2021/01/31 01:40:38;;;;;;;17.52;10.32;;;;;;;2.54;90.58;97930.12;1724700;82;21156;-82
2021/01/31 01:43:15;;;;;;;14.10;8.97;;;;;;;2.53;90.65;97927.13;1725261;83;21163;-80
2021/01/31 01:45:45;;;;;;;12.53;7.77;;;;;;;2.53;90.61;97925.25;1702033;83;21160;-81
2021/01/31 01:48:17;;;;;;;11.50;6.80;;;;;;;2.54;90.51;97928.77;1710110;83;21414;-79
2021/01/31 01:50:52;;;;;;;9.40;5.92;;;;;;;2.53;90.48;97919.03;1696739;83;21111;-73
2021/01/31 01:53:22;;;;;;;12.35;7.60;;;;;;;2.52;90.44;97920.12;1665954;83;21148;-72
2021/01/31 01:56:12;;;;;;;14.75;9.10;;;;;;;2.51;90.45;97920.64;1712733;83;21103;-79
2021/01/31 01:58:40;;;;;;;13.73;8.50;;;;;;;2.50;90.49;97912.25;1725299;83;21133;-80
2021/01/31 02:01:08;;;;;;;15.88;8.85;;;;;;;2.51;90.51;97920.64;1704337;82;21137;-74
2021/01/31 02:03:40;;;;;;;11.97;7.00;;;;;;;2.50;90.52;97912.25;1708725;83;21149;-78
2021/01/31 02:06:19;;;;;;;10.90;6.40;;;;;;;2.50;90.64;97906.84;1724627;82;21365;-73
2021/01/31 02:08:47;;;;;;;;;;;;;;;2.52;90.67;97914.72;1728048;82;21111;-82
2021/01/31 02:11:15;;;;;;;10.25;6.03;;;;;;;2.51;90.71;97905.80;1724723;82;20474;-74
2021/01/31 02:13:47;;;;;;;9.63;4.67;;;;;;;2.52;90.73;97918.77;1725463;83;21597;-74
2021/01/31 02:16:21;;;;;;;6.03;3.43;;;;;;;2.53;90.72;97910.92;1693281;83;21145;-73
2021/01/31 02:19:27;;;;;;;6.80;3.70;;;;;;;2.54;90.79;97912.57;1694284;84;21612;-74
2021/01/31 02:22:10;;;;;;;8.38;4.00;;;;;;;2.55;90.78;97908.81;1654412;83;21564;-76
2021/01/31 02:25:10;;;;;;;9.40;5.23;;;;;;;2.56;90.76;97905.03;1695817;83;21124;-81
2021/01/31 02:27:59;;;;;;;8.37;4.47;;;;;;;2.57;90.72;97903.97;1696966;83;21200;-74
2021/01/31 02:31:02;;;;;;;7.43;3.60;;;;;;;2.56;90.71;97899.63;1716291;82;21158;-81
2021/01/31 02:33:55;;;;;;;5.55;3.10;;;;;;;2.56;90.79;97899.63;1677283;83;21223;-74
2021/01/31 02:36:48;;;;;;;7.07;3.70;;;;;;;2.58;90.88;97904.79;1706586;83;21182;-76
2021/01/31 02:39:40;;;;;;;6.43;3.50;;;;;;;2.60;90.88;97902.11;1704568;82;21672;-78
2021/01/31 02:42:32;;;;;;;7.97;4.30;;;;;;;2.59;90.94;97897.77;1723901;82;21249;-80
2021/01/31 02:45:29;;;;;;;6.63;3.87;;;;;;;2.61;90.91;97901.03;1722413;82;21121;-81
2021/01/31 02:48:02;;;;;;;7.40;4.10;;;;;;;2.60;90.96;97894.02;1717237;83;21165;-80
2021/01/31 02:50:34;;;;;;;9.13;4.50;;;;;;;2.61;91.04;97899.67;1697514;83;21528;-74
2021/01/31 02:53:10;;;;;;;8.43;4.17;;;;;;;2.62;91.04;97893.75;1683988;83;21625;-74
2021/01/31 02:55:59;;;;;;;8.30;5.00;;;;;;;2.62;91.12;97891.87;1696825;83;21137;-73
2021/01/31 02:58:33;;;;;;;8.80;5.20;;;;;;;2.62;91.15;97893.75;1695112;83;21153;-81
2021/01/31 03:01:09;;;;;;;9.13;5.60;;;;;;;2.63;91.19;97892.69;1725603;82;21155;-83
2021/01/31 03:03:48;;;;;;;10.87;6.03;;;;;;;2.63;91.21;97892.69;1710327;83;21164;-81
2021/01/31 03:06:30;;;;;;;9.67;5.27;;;;;;;2.64;91.21;97888.90;1673415;84;21145;-75
2021/01/31 03:09:05;;;;;;;8.83;5.00;;;;;;;2.65;91.14;97891.36;1687315;84;21548;-74
2021/01/31 03:11:43;;;;;;;9.00;5.35;;;;;;;2.67;91.16;97889.22;1714666;84;21192;-75
2021/01/31 03:14:18;;;;;;;;;;;;;;;2.69;91.12;97894.35;1683484;84;21952;-74
2021/01/31 03:17:07;;;;;;;9.77;5.80;;;;;;;2.67;91.04;97898.67;1702864;84;20252;-81
2021/01/31 03:19:41;;;;;;;;;;;;;;;2.67;91.14;97898.67;1699634;83;21137;-76
2021/01/31 03:22:14;;;;;;;11.03;6.80;;;;;;;2.66;91.14;97901.08;1674680;84;20176;-72
2021/01/31 03:24:52;;;;;;;11.83;8.03;;;;;;;2.66;91.23;97901.64;1697665;84;21239;-81
2021/01/31 03:27:26;;;;;;;14.65;9.00;;;;;;;2.67;91.26;97907.30;1703057;84;21134;-81
2021/01/31 03:29:54;;;;;;;14.33;9.30;;;;;;;2.67;91.28;97901.90;1700049;84;21142;-73
2021/01/31 03:32:29;;;;;;;14.03;8.73;;;;;;;2.67;91.32;97897.31;1701835;84;21130;-81
2021/01/31 03:35:08;;;;;;;13.77;8.97;;;;;;;2.69;91.36;97900.57;1701803;84;21162;-80
2021/01/31 03:37:46;;;;;;;14.13;9.05;;;;;;;2.72;91.34;97907.34;1700486;84;21632;-80
2021/01/31 03:40:15;;;;;;;13.18;8.68;;;;;;;2.73;91.36;97900.36;1675630;84;21134;-76
2021/01/31 03:42:45;;;;;;;13.27;8.37;;;;;;;2.74;91.37;97900.62;1701870;84;21175;-76
2021/01/31 03:45:13;;;;;;;13.23;8.23;;;;;;;2.75;91.40;97893.34;1702716;84;21184;-78
2021/01/31 03:48:02;;;;;;;10.30;6.85;;;;;;;2.76;91.43;97891.72;1673634;84;21198;-82
2021/01/31 03:50:30;;;;;;;12.45;7.58;;;;;;;2.77;91.45;97889.31;1678026;84;21194;-79
2021/01/31 03:52:59;;;;;;;14.60;8.48;;;;;;;2.79;91.47;97887.16;1631279;84;21172;-79
2021/01/31 03:55:26;;;;;;;15.08;8.53;;;;;;;2.81;91.49;97894.47;1702258;83;21113;-76
2021/01/31 03:57:58;;;;;;;15.85;9.70;;;;;;;2.81;91.48;97895.81;1689088;84;21259;-79
2021/01/31 04:00:31;;;;;;;16.23;10.63;;;;;;;2.83;91.52;97893.70;1702812;84;21647;-76
2021/01/31 04:03:08;;;;;;;17.65;10.72;;;;;;;2.84;91.52;97891.27;1689779;84;21137;-76
2021/01/31 04:05:36;;;;;;;17.65;11.03;;;;;;;2.86;91.57;97891.81;1720790;83;21181;-80
2021/01/31 04:08:07;;;;;;;16.65;10.55;;;;;;;2.87;91.60;97883.18;1718896;82;21108;-79
2021/01/31 04:10:35;;;;;;;18.32;12.00;;;;;;;2.88;91.61;97874.84;1725478;83;21211;-76
2021/01/31 04:13:04;;;;;;;17.95;11.68;;;;;;;2.89;91.66;97869.69;1723766;82;21177;-80
2021/01/31 04:15:51;;;;;;;19.80;10.97;;;;;;;2.90;91.61;97871.34;1686125;84;21698;-77
2021/01/31 04:18:21;;;;;;;14.83;9.40;;;;;;;2.89;91.66;97866.17;1707508;84;21136;-77
2021/01/31 04:20:49;;;;;;;14.33;9.53;;;;;;;2.91;91.66;97868.11;1707756;83;21601;-75
2021/01/31 04:23:17;;;;;;;16.73;9.43;;;;;;;2.92;91.67;97862.96;1701238;84;21584;-75
2021/01/31 04:25:46;;;;;;;17.35;10.30;;;;;;;2.93;91.68;97873.53;1706464;82;21162;-81
2021/01/31 04:28:21;;;;;;;15.88;8.75;;;;;;;2.94;91.66;97875.67;1706438;84;21429;-81
2021/01/31 04:30:56;;;;;;;14.58;8.78;;;;;;;2.94;91.66;97870.27;1725168;83;21238;-77
2021/01/31 04:33:25;;;;;;;16.87;10.10;;;;;;;2.95;91.69;97880.84;1723858;82;21118;-79
2021/01/31 04:35:53;;;;;;;17.37;9.43;;;;;;;2.97;91.67;97885.44;1695329;83;21231;-79
2021/01/31 04:38:22;;;;;;;18.20;10.20;;;;;;;2.98;91.64;97880.86;1717651;83;21107;-78
2021/01/31 04:40:49;;;;;;;14.83;9.10;;;;;;;3.00;91.67;97888.16;1696683;83;21695;-79
2021/01/31 04:43:18;;;;;;;14.23;9.08;;;;;;;3.01;91.64;97893.30;1725507;83;21252;-78
2021/01/31 04:45:47;;;;;;;16.30;9.55;;;;;;;3.02;91.64;97892.77;1726298;80;21144;-77
2021/01/31 04:48:44;;;;;;;14.47;8.55;;;;;;;3.04;91.69;97897.37;1700168;83;21161;-80
2021/01/31 04:51:29;;;;;;;14.63;7.60;;;;;;;3.04;91.70;97886.03;1651840;85;21281;-79
2021/01/31 04:54:28;;;;;;;12.93;7.40;;;;;;;3.06;91.67;97888.50;1708476;83;21159;-80
2021/01/31 04:57:14;;;;;;;10.90;6.72;;;;;;;3.07;91.73;97885.52;1667828;86;21256;-81
2021/01/31 04:59:49;;;;;;;11.90;6.58;;;;;;;3.10;91.68;97889.06;1723916;82;21136;-80
2021/01/31 05:02:40;;;;;;;11.48;6.35;;;;;;;3.13;91.64;97887.73;1711037;84;21137;-76
2021/01/31 05:05:38;;;;;;;10.55;5.75;;;;;;;3.14;91.55;97885.29;1697114;83;21164;-77
2021/01/31 05:08:13;;;;;;;12.23;6.87;;;;;;;3.16;91.54;97896.13;1678625;83;21188;-80
2021/01/31 05:10:42;;;;;;;11.40;6.62;;;;;;;3.17;91.49;97907.75;1682302;84;21117;-77
2021/01/31 05:13:53;;;;;;;13.35;7.30;;;;;;;3.19;91.50;97915.88;1707733;84;21168;-77
2021/01/31 05:16:20;;;;;;;13.35;7.50;;;;;;;3.20;91.45;97916.17;1682778;83;21160;-72
2021/01/31 05:18:55;;;;;;;11.12;6.95;;;;;;;3.21;91.50;97919.14;1707086;84;21104;-78
2021/01/31 05:21:28;;;;;;;12.80;7.28;;;;;;;3.24;91.48;97914.31;1683074;84;21127;-71
2021/01/31 05:24:02;;;;;;;12.95;7.22;;;;;;;3.23;91.48;97900.51;1711465;83;21237;-72
2021/01/31 05:26:45;;;;;;;14.33;8.50;;;;;;;3.23;91.42;97897.80;1699630;84;21142;-78
2021/01/31 05:29:25;;;;;;;15.40;8.08;;;;;;;3.22;91.57;97880.77;1726076;82;21176;-79
2021/01/31 05:32:09;;;;;;;14.05;8.33;;;;;;;3.25;91.58;97894.30;1724721;82;21190;-77
2021/01/31 05:34:46;;;;;;;17.02;9.40;;;;;;;3.25;91.62;97879.43;1722915;82;21166;-78
2021/01/31 05:37:44;;;;;;;19.35;10.03;;;;;;;3.27;91.66;97888.91;1715809;82;21167;-72
2021/01/31 05:40:16;;;;;;;20.72;12.40;;;;;;;3.28;91.71;97881.63;1686283;85;21622;-74
2021/01/31 05:42:44;;;;;;;23.07;13.70;;;;;;;3.30;91.73;97887.05;1709943;82;21176;-76
2021/01/31 05:45:24;;;;;;;17.27;10.30;;;;;;;3.32;91.83;97889.48;1695349;83;21568;-78
2021/01/31 05:47:52;;;;;;;17.13;10.90;;;;;;;3.32;91.83;97889.48;1722068;82;21831;-74
2021/01/31 05:50:34;;;;;;;17.83;10.87;;;;;;;3.37;91.79;97896.27;1725907;81;21160;-78
2021/01/31 05:53:34;;;;;;;19.15;11.15;;;;;;;3.37;91.79;97896.27;1725597;82;21867;-82
2021/01/31 05:56:28;;;;;;;18.23;10.70;;;;;;;3.40;91.78;97891.70;1668889;82;21197;-75
2021/01/31 05:59:09;;;;;;;18.12;11.63;;;;;;;3.42;91.81;97894.95;1700525;83;21184;-80
2021/01/31 06:02:01;;;;;;;17.55;11.22;;;;;;;3.43;91.76;97901.47;1716446;83;21145;-75
2021/01/31 06:04:29;;;;;;;18.95;11.28;;;;;;;3.45;91.76;97903.91;1715529;83;21663;-75
2021/01/31 06:07:13;;;;;;;20.02;11.22;;;;;;;3.46;91.77;97889.33;1715795;83;21112;-75
2021/01/31 06:09:50;;;;;;;21.40;12.28;;;;;;;3.47;91.71;97905.28;1702310;83;21523;-74
2021/01/31 06:12:24;;;;;;;21.65;13.05;;;;;;;3.49;91.72;97903.69;1672480;86;21865;-80
2021/01/31 06:15:16;;;;;;;20.85;12.45;;;;;;;3.49;91.74;97896.36;1695238;84;21141;-81
2021/01/31 06:17:44;;;;;;;23.27;13.90;;;;;;;3.49;91.71;97908.53;1675446;84;21445;-80
2021/01/31 06:20:17;;;;;;;22.35;13.48;;;;;;;3.51;91.81;97915.05;1648225;83;21549;-80
2021/01/31 06:22:48;;;;;;;21.97;12.15;;;;;;;3.53;91.76;97911.01;1657743;85;21151;-75
2021/01/31 06:25:31;;;;;;;25.97;13.68;;;;;;;3.55;91.62;97903.97;1668913;84;21153;-80
2021/01/31 06:28:14;;;;;;;23.25;13.90;;;;;;;3.57;91.48;97914.81;1707728;84;21589;-73
2021/01/31 06:30:52;;;;;;;22.05;13.43;;;;;;;3.60;91.41;97905.36;1724637;82;21570;-76
2021/01/31 06:33:20;;;;;;;25.20;13.60;;;;;;;3.60;91.32;97907.53;1665885;85;21314;-83
2021/01/31 06:36:08;;;;;;;25.57;14.58;;;;;;;3.60;91.32;97910.23;1724696;82;21287;-74
2021/01/31 06:38:50;;;;;;;25.45;13.95;;;;;;;3.62;91.36;97905.91;1648025;85;21632;-83
2021/01/31 06:41:45;;;;;;;24.82;14.38;;;;;;;3.66;91.25;97915.15;1714635;83;21642;-82
2021/01/31 06:44:40;;;;;;;13.05;8.18;;;;;;;3.66;91.21;97936.78;1725516;83;21653;-75
2021/01/31 06:47:20;;;;;;;11.88;7.45;;;;;;;3.58;89.02;97953.49;1687787;83;21140;-75
2021/01/31 06:50:10;;;;;;;11.15;6.62;;;;;;;3.47;86.95;97954.48;1711436;82;21126;-82
2021/01/31 06:53:04;;;;;;;13.28;7.80;;;;;;;3.38;86.29;97996.60;1681085;84;21189;-75
2021/01/31 06:55:40;;;;;;;14.85;6.97;;;;;;;3.28;85.62;98033.01;1684452;84;21146;-75
2021/01/31 06:58:42;;;;;;;11.22;6.67;;;;;;;3.13;84.48;98018.81;1695151;84;21216;-75
2021/01/31 07:01:21;;;;;;;13.48;7.90;;;;;;;2.99;83.94;97991.90;1700324;83;21648;-76
2021/01/31 07:04:03;;;;;;;12.20;7.25;;;;;;;2.78;83.67;98027.36;1699227;84;21185;-84
2021/01/31 07:07:24;;;;;;;12.18;7.03;;;;;;;2.65;83.47;98033.14;1699392;84;21146;-75
2021/01/31 07:10:19;;;;;;;12.80;6.83;;;;;;;2.52;84.28;98022.19;1647852;84;21134;-75
2021/01/31 07:13:01;;;;;;;12.93;7.22;;;;;;;2.33;84.99;98008.70;1678957;84;21283;-75
2021/01/31 07:15:38;;;;;;;10.27;6.43;;;;;;;2.20;85.39;98016.36;1628045;84;21723;-75
2021/01/31 07:18:09;;;;;;;13.20;7.20;;;;;;;2.14;85.20;98037.06;1698856;84;21117;-81
2021/01/31 07:20:47;;;;;;;12.97;7.30;;;;;;;2.10;85.91;98066.14;1725432;82;21572;-82
2021/01/31 07:23:29;;;;;;;12.73;6.43;;;;;;;2.04;86.01;98067.12;1671921;84;21140;-76
2021/01/31 07:26:11;;;;;;;11.57;6.13;;;;;;;1.98;85.81;98081.58;1706573;84;21176;-81
2021/01/31 07:28:41;;;;;;;11.63;5.93;;;;;;;1.90;84.38;98089.03;1698655;84;21216;-75
2021/01/31 07:31:19;;;;;;;10.73;5.40;;;;;;;1.85;84.64;98080.86;1677957;85;21164;-76
2021/01/31 07:34:04;;;;;;;11.68;5.40;;;;;;;1.77;83.48;98102.05;1688207;84;21176;-83
2021/01/31 07:36:38;;;;;;;11.37;5.57;;;;;;;1.67;83.08;98089.19;1678983;84;21192;-76
2021/01/31 07:39:14;;;;;;;10.63;5.53;;;;;;;1.62;82.99;98122.80;1683798;84;22263;-85
2021/01/31 07:41:51;;;;;;;10.93;6.20;;;;;;;1.57;83.25;98111.93;1707676;84;21132;-75
2021/01/31 07:44:24;;;;;;;12.10;6.50;;;;;;;1.54;83.57;98121.88;1707075;84;21635;-86
2021/01/31 07:46:57;;;;;;;13.10;6.87;;;;;;;1.49;82.60;98155.48;1707870;84;21560;-74
2021/01/31 07:49:25;;;;;;;12.80;7.47;;;;;;;1.46;83.55;98141.13;1707345;84;21136;-74
2021/01/31 07:52:01;;;;;;;14.05;8.05;;;;;;;1.42;82.59;98147.25;1708970;82;21218;-85
2021/01/31 07:54:33;;;;;;;15.13;8.83;;;;;;;1.39;83.12;98133.73;1714514;82;21160;-82
2021/01/31 07:57:27;;;;;;;14.90;7.83;;;;;;;1.34;83.07;98160.59;1707674;84;21550;-83
2021/01/31 07:59:55;;;;;;;15.87;9.07;;;;;;;1.29;83.45;98163.19;1691800;84;21185;-84
2021/01/31 08:02:36;;;;;;;15.63;9.30;;;;;;;1.22;83.58;98171.91;1724994;83;21228;-75
2021/01/31 08:05:05;;;;;;;19.67;10.27;;;;;;;1.14;83.76;98169.59;1678087;83;21176;-82
2021/01/31 08:08:01;;;;;;;18.80;10.03;;;;;;;1.09;83.95;98154.14;1718061;82;21176;-74
2021/01/31 08:10:43;;;;;;;19.30;9.93;;;;;;;1.07;84.04;98171.61;1724337;82;21616;-76
2021/01/31 08:13:33;;;;;;;19.70;10.90;;;;;;;1.08;84.28;98184.03;1725503;83;21143;-80
2021/01/31 08:16:40;;;;;;;23.47;11.67;;;;;;;1.05;83.75;98193.92;1724570;82;21219;-81
2021/01/31 08:19:12;;;;;;;18.80;11.13;;;;;;;1.05;83.87;98191.23;1706581;82;21089;-80
2021/01/31 08:22:04;;;;;;;20.83;11.23;;;;;;;1.03;83.04;98200.91;1719346;82;21124;-83
2021/01/31 08:25:12;;;;;;;18.20;10.90;;;;;;;1.03;83.69;98206.30;1725281;83;21131;-75
2021/01/31 08:27:45;;;;;;;18.67;10.40;;;;;;;1.07;83.38;98212.02;1708507;83;21169;-82
2021/01/31 08:30:42;;;;;;;22.83;12.80;;;;;;;1.09;83.53;98212.06;1696590;83;21228;-74
2021/01/31 08:33:26;;;;;;;22.90;13.07;;;;;;;1.12;83.60;98223.72;1725335;82;21210;-80
2021/01/31 08:36:14;;;;;;;23.70;13.70;;;;;;;1.11;81.98;98221.27;1684508;82;21634;-75
2021/01/31 08:38:45;;;;;;;26.87;14.20;;;;;;;1.12;81.92;98235.02;1712241;82;21196;-74
2021/01/31 08:41:37;;;;;;;24.60;13.97;;;;;;;1.10;80.89;98238.48;1724721;82;21145;-73
2021/01/31 08:44:17;;;;;;;23.60;13.70;;;;;;;1.10;81.18;98257.34;1719386;83;21166;-80
2021/01/31 08:47:00;;;;;;;26.50;14.50;;;;;;;1.07;80.38;98248.37;1725268;83;21137;-73
2021/01/31 08:49:28;;;;;;;26.17;15.20;;;;;;;1.07;80.77;98252.42;1701374;83;21129;-74
2021/01/31 08:52:13;;;;;;;29.30;15.60;;;;;;;1.08;80.36;98250.03;1725059;83;21188;-74
2021/01/31 08:54:41;;;;;;;28.13;14.93;;;;;;;1.05;80.33;98260.75;1724433;82;21603;-83
2021/01/31 08:57:13;;;;;;;27.20;15.35;;;;;;;1.03;80.36;98270.95;1666663;83;21162;-74
2021/01/31 08:59:47;;;;;;;30.73;14.80;;;;;;;1.04;80.75;98279.30;1708791;83;21129;-82
2021/01/31 09:02:25;;;;;;;27.00;14.80;;;;;;;1.01;79.47;98285.70;1679825;84;21148;-74
2021/01/31 09:05:13;;;;;;;28.87;14.85;;;;;;;0.96;79.33;98305.80;1688979;83;21161;-80
2021/01/31 09:07:45;;;;;;;31.00;15.87;;;;;;;0.92;78.97;98304.08;1677140;84;21517;-82
2021/01/31 09:10:40;;;;;;;31.40;17.50;;;;;;;0.83;77.94;98296.59;1699232;83;21113;-74
2021/01/31 09:13:25;;;;;;;31.77;17.33;;;;;;;0.66;77.65;98323.92;1665280;85;21250;-77
2021/01/31 09:15:53;;;;;;;33.10;18.23;;;;;;;0.61;78.33;98338.87;1748768;80;21140;-74
2021/01/31 09:18:23;;;;;;;34.60;18.77;;;;;;;0.56;77.82;98348.69;1759232;81;21148;-83
2021/01/31 09:20:51;;;;;;;34.63;17.03;;;;;;;0.53;79.08;98361.30;1758720;80;21567;-76
2021/01/31 09:23:35;;;;;;;33.98;18.15;;;;;;;0.28;76.80;98370.84;1755181;81;21691;-82
2021/01/31 09:26:03;;;;;;;30.57;17.37;;;;;;;0.13;77.17;98377.16;1747257;81;21187;-77
2021/01/31 09:28:31;;;;;;;36.10;17.65;;;;;;;0.00;76.34;98393.50;1758835;81;21227;-75
2021/01/31 09:38:17;;;;;;;38.08;22.42;;;;;;;-0.10;77.20;98433.52;1815681;77;38356;-72
2021/01/31 09:40:46;;;;;;;34.27;19.70;;;;;;;-0.18;77.25;98429.26;1784978;78;21231;-82
2021/01/31 09:43:18;;;;;;;35.13;19.27;;;;;;;-0.22;76.95;98442.03;1756247;82;21160;-74
2021/01/31 09:45:50;;;;;;;35.60;19.10;;;;;;;-0.34;76.76;98446.52;1754850;81;21128;-82
2021/01/31 09:48:21;;;;;;;37.10;19.53;;;;;;;-0.45;76.28;98468.73;1729627;83;21232;-82
2021/01/31 09:51:01;;;;;;;32.10;17.90;;;;;;;-0.54;75.86;98467.39;1756115;82;21208;-83
2021/01/31 09:53:39;;;;;;;32.57;17.13;;;;;;;-0.66;75.52;98488.25;1750942;82;21263;-82
2021/01/31 09:56:11;;;;;;;32.67;17.13;;;;;;;-0.76;74.02;98497.33;1747607;81;21158;-76
2021/01/31 09:58:47;;;;;;;30.63;17.20;;;;;;;-0.81;73.92;98508.45;1734732;81;21560;-76
2021/01/31 10:01:27;;;;;;;29.20;15.13;;;;;;;-0.91;74.38;98530.39;1755943;80;21139;-76
2021/01/31 10:04:01;;;;;;;28.00;15.80;;;;;;;-1.02;74.04;98526.25;1755557;80;21190;-81
2021/01/31 10:06:41;;;;;;;28.57;14.03;;;;;;;-1.08;74.57;98550.75;1725978;83;21188;-76
2021/01/31 10:09:10;;;;;;;25.03;13.77;;;;;;;-1.16;73.64;98541.61;1764592;80;21529;-83
2021/01/31 10:11:44;;;;;;;24.07;13.55;;;;;;;-1.25;73.80;98571.09;1738221;82;21065;-80
2021/01/31 10:14:33;;;;;;;26.07;12.97;;;;;;;-1.36;73.48;98575.77;1724128;81;21248;-76
2021/01/31 10:17:22;;;;;;;20.70;11.70;;;;;;;-1.41;73.66;98579.10;1753080;81;21165;-75
2021/01/31 10:20:37;;;;;;;22.00;12.47;;;;;;;-1.47;73.67;98582.63;1756853;80;21099;-75
2021/01/31 10:23:18;;;;;;;20.27;12.07;;;;;;;-1.53;74.15;98581.32;1752160;81;21157;-74
2021/01/31 10:26:01;;;;;;;16.40;9.27;;;;;;;-1.50;74.98;98597.00;1755965;82;21113;-79
2021/01/31 10:28:37;;;;;;;16.17;8.50;;;;;;;-1.51;73.10;98604.22;1741196;80;21119;-83
2021/01/31 10:31:05;;;;;;;14.13;7.70;;;;;;;-1.57;71.80;98608.28;1756837;82;21109;-82
2021/01/31 10:33:43;;;;;;;12.98;6.90;;;;;;;-1.61;72.15;98603.02;1755254;80;21189;-79
2021/01/31 10:36:40;;;;;;;12.73;7.40;;;;;;;-1.64;71.69;98603.42;1726422;82;21278;-81
2021/01/31 10:39:14;;;;;;;14.73;7.13;;;;;;;-1.65;72.66;98611.19;1737955;81;21199;-78
2021/01/31 10:41:44;;;;;;;11.80;6.63;;;;;;;-1.60;72.07;98624.28;1745461;82;21112;-79
2021/01/31 10:44:15;;;;;;;12.50;7.20;;;;;;;-1.57;72.67;98633.77;1765075;80;21679;-76
2021/01/31 10:46:44;;;;;;;13.17;6.80;;;;;;;-1.56;72.75;98637.56;1730346;82;21126;-78
2021/01/31 10:49:12;;;;;;;13.55;7.08;;;;;;;-1.52;73.37;98643.34;1730143;81;21416;-80
2021/01/31 10:51:42;;;;;;;;;;;;;;;-1.44;72.78;98644.43;1731910;81;21243;-74
2021/01/31 10:54:10;;;;;;;11.20;5.87;;;;;;;-1.49;72.08;98658.99;1729531;81;20193;-76
2021/01/31 10:56:38;;;;;;;11.70;6.08;;;;;;;-1.47;72.17;98660.98;1734636;81;21172;-82
2021/01/31 10:59:06;;;;;;;9.75;5.10;;;;;;;-1.48;71.65;98668.19;1729950;81;21156;-84
2021/01/31 11:01:35;;;;;;;9.70;5.10;;;;;;;-1.46;71.41;98680.05;1737508;81;21545;-82
2021/01/31 11:04:03;;;;;;;;;;;;;;;-1.44;71.16;98686.02;1731563;83;21290;-80
2021/01/31 11:06:31;;;;;;;10.50;4.50;;;;;;;-1.38;70.77;98698.61;1733172;81;20572;-80
2021/01/31 11:08:59;;;;;;;7.10;3.92;;;;;;;-1.32;69.80;98699.13;1743810;81;21117;-77
2021/01/31 11:11:29;;;;;;;8.70;3.83;;;;;;;-1.25;69.48;98704.45;1734754;81;21121;-79
2021/01/31 11:13:57;;;;;;;8.25;4.30;;;;;;;-1.28;69.25;98719.13;1729343;81;21164;-77
2021/01/31 11:16:25;;;;;;;8.68;3.83;;;;;;;-1.25;69.41;98731.30;1737722;81;21132;-77
2021/01/31 11:18:52;;;;;;;7.30;3.85;;;;;;;-1.25;68.57;98730.79;1765951;80;21121;-79
2021/01/31 11:21:23;;;;;;;11.45;4.60;;;;;;;-1.26;68.86;98739.86;1735203;81;21184;-79
2021/01/31 11:23:53;;;;;;;9.23;4.40;;;;;;;-1.26;69.73;98745.23;1741467;81;21666;-77
2021/01/31 11:26:22;;;;;;;8.03;4.43;;;;;;;-1.27;70.37;98749.48;1736410;81;21125;-78
2021/01/31 11:28:51;;;;;;;8.23;4.53;;;;;;;-1.27;71.62;98757.53;1747842;81;21283;-78
2021/01/31 11:31:20;;;;;;;7.87;4.40;;;;;;;-1.27;70.97;98762.89;1748801;81;21215;-82
2021/01/31 11:33:50;;;;;;;8.25;4.62;;;;;;;-1.29;70.62;98785.39;1722341;80;21154;-81
2021/01/31 11:36:18;;;;;;;9.07;5.03;;;;;;;-1.34;70.78;98777.14;1749659;81;21602;-73
2021/01/31 11:38:46;;;;;;;10.28;4.97;;;;;;;-1.31;71.28;98782.09;1722296;81;21140;-84
2021/01/31 11:41:16;;;;;;;9.93;4.73;;;;;;;-1.30;71.54;98794.50;1733429;81;21152;-83
2021/01/31 11:43:44;;;;;;;9.07;5.00;;;;;;;-1.25;71.09;98805.11;1745408;81;21140;-85
2021/01/31 11:46:12;;;;;;;10.60;4.92;;;;;;;-1.23;71.19;98815.95;1727928;83;21199;-86
2021/01/31 11:48:40;;;;;;;;;;;;;;;-1.23;70.55;98830.70;1729696;81;21223;-85
2021/01/31 11:51:08;;;;;;;10.87;5.20;;;;;;;-1.26;70.62;98833.80;1722910;83;20212;-88
2021/01/31 11:53:36;;;;;;;12.60;5.92;;;;;;;-1.31;70.34;98845.17;1738555;81;21797;-75
2021/01/31 11:56:04;;;;;;;12.27;5.50;;;;;;;-1.30;71.05;98845.48;1702630;82;21116;-76
2021/01/31 11:58:32;;;;;;;10.88;5.35;;;;;;;-1.32;70.62;98860.95;1743844;80;21517;-75
2021/01/31 12:01:01;;;;;;;;;;;;;;;-1.34;70.36;98863.53;1714323;82;21255;-84
2021/01/31 12:03:28;;;;;;;9.40;5.00;;;;;;;-1.33;70.21;98873.24;1739942;81;20500;-75
2021/01/31 12:05:56;;;;;;;10.38;5.33;;;;;;;-1.42;70.04;98875.83;1737588;82;21124;-75
2021/01/31 12:08:24;;;;;;;10.20;5.20;;;;;;;-1.48;70.99;98890.89;1745621;81;21129;-84
2021/01/31 12:10:52;;;;;;;12.68;5.90;;;;;;;-1.51;70.12;98891.30;1736498;81;21164;-79
2021/01/31 12:13:19;;;;;;;9.63;5.33;;;;;;;-1.48;70.70;98916.38;1743695;81;21638;-83
2021/01/31 12:15:48;;;;;;;12.45;5.70;;;;;;;-1.49;70.07;98908.01;1733470;81;21592;-84
2021/01/31 12:18:16;;;;;;;10.25;5.30;;;;;;;-1.52;70.13;98925.05;1755078;82;21197;-82
2021/01/31 12:20:46;;;;;;;10.40;5.27;;;;;;;-1.55;70.44;98934.84;1754130;80;21268;-82
2021/01/31 12:23:14;;;;;;;8.95;5.10;;;;;;;-1.58;68.33;98925.84;1756115;81;21118;-82